Spittal an der Drau, Austria
Current Conditions -  °F | °C
As of 11:20 AM on Monday 24 Nov 2014 (Local Time) from LOWK Reporting Station
Overcast Overcast  
Wind Chill: 36°   Ceiling: 500
Heat Index: 39°   Visibility: 6mi
Dew Point: 37°   Wind: 5mph
Humidity: 93%   Direction: 340°NNW
Pressure: 30.3"   Gusts: NA
Location:  46.8°N, 13.5°E
Report Text: LOWK 240920Z 34004KT 9999 OVC005 04/03 Q1026 NOSIG
Loading
Personal Weather Stations






























Interactive Weather Map New forecast layout! Learn more

10-Day Weather Forecast

Advertisements
Track Severe Weather on mobile